createdAt,value
2019-05-12T00:01:34.221Z,0.30
2019-05-12T00:04:27.923Z,0.40
2019-05-12T00:07:18.054Z,0.40
2019-05-12T00:10:09.970Z,0.30
2019-05-12T00:12:59.890Z,0.23
2019-05-12T00:15:50.005Z,0.60
2019-05-12T00:18:39.804Z,0.40
2019-05-12T00:21:29.585Z,0.90
2019-05-12T00:24:19.565Z,0.53
2019-05-12T00:27:12.492Z,0.17
2019-05-12T00:30:02.071Z,0.47
2019-05-12T00:32:53.009Z,0.47
2019-05-12T00:35:43.311Z,0.20
2019-05-12T00:38:33.185Z,0.17
2019-05-12T00:41:22.729Z,0.30
2019-05-12T00:44:12.205Z,0.37
2019-05-12T00:47:02.090Z,0.40
2019-05-12T00:49:51.921Z,0.30
2019-05-12T00:52:41.445Z,0.33
2019-05-12T00:55:31.819Z,0.50
2019-05-12T00:58:21.884Z,0.20
2019-05-12T01:01:11.821Z,0.23
2019-05-12T01:04:01.405Z,0.30
2019-05-12T01:06:52.850Z,0.57
2019-05-12T01:09:43.091Z,0.30
2019-05-12T01:12:32.522Z,0.60
2019-05-12T01:15:22.401Z,0.30
2019-05-12T01:18:12.295Z,0.40
2019-05-12T01:21:03.104Z,0.33
2019-05-12T01:23:57.127Z,0.37
2019-05-12T01:26:43.755Z,0.27
2019-05-12T01:29:33.805Z,0.30
2019-05-12T01:32:42.420Z,0.30
2019-05-12T01:35:32.228Z,0.60
2019-05-12T01:38:21.805Z,0.50
2019-05-12T01:41:11.800Z,0.30
2019-05-12T01:44:01.683Z,0.63
2019-05-12T01:46:51.340Z,0.73
2019-05-12T01:49:41.489Z,0.30
2019-05-12T01:52:31.867Z,0.50
2019-05-12T01:55:21.925Z,0.70
2019-05-12T02:02:12.248Z,0.43
2019-05-12T02:05:05.115Z,0.40
2019-05-12T02:07:58.125Z,0.30
2019-05-12T02:10:48.084Z,0.73
2019-05-12T02:13:38.412Z,0.47
2019-05-12T02:16:28.239Z,0.33
2019-05-12T02:19:18.311Z,0.33
2019-05-12T02:22:08.490Z,0.40
2019-05-12T02:24:58.613Z,0.60
2019-05-12T02:27:47.961Z,0.50
2019-05-12T02:30:41.368Z,0.30
2019-05-12T02:33:29.235Z,0.70
2019-05-12T02:36:19.158Z,0.50
2019-05-12T02:39:09.377Z,0.37
2019-05-12T02:41:58.994Z,0.20
2019-05-12T02:44:49.135Z,0.33
2019-05-12T02:47:39.975Z,0.30
2019-05-12T02:50:36.758Z,0.27
2019-05-12T02:53:27.128Z,0.33
2019-05-12T02:56:18.562Z,0.40
2019-05-12T02:59:10.479Z,0.53
2019-05-12T03:02:05.258Z,0.40
2019-05-12T03:04:55.046Z,0.40
2019-05-12T03:07:46.993Z,0.50
2019-05-12T03:10:37.820Z,0.43
2019-05-12T03:13:27.844Z,0.43
2019-05-12T03:16:17.159Z,0.37
2019-05-12T03:19:07.408Z,0.30
2019-05-12T03:21:57.892Z,0.50
2019-05-12T03:25:06.526Z,0.80
2019-05-12T03:27:39.137Z,0.50
2019-05-12T03:30:29.946Z,0.70
2019-05-12T03:33:20.398Z,0.60
2019-05-12T03:36:16.016Z,0.50
2019-05-12T03:39:04.402Z,0.40
2019-05-12T03:41:54.630Z,0.70
2019-05-12T03:44:44.611Z,0.23
2019-05-12T03:47:35.613Z,0.47
2019-05-12T03:50:25.679Z,0.23
2019-05-12T03:53:16.119Z,0.43
2019-05-12T03:56:07.415Z,0.50
2019-05-12T03:58:57.994Z,0.40
2019-05-12T04:01:47.781Z,0.50
2019-05-12T04:04:45.460Z,0.67
2019-05-12T04:07:35.633Z,0.57
2019-05-12T04:10:25.342Z,0.63
2019-05-12T04:13:15.212Z,0.47
2019-05-12T04:16:05.388Z,0.30
2019-05-12T04:18:55.343Z,0.40
2019-05-12T04:21:45.638Z,0.40
2019-05-12T04:24:36.012Z,0.47
2019-05-12T04:27:25.636Z,0.20
2019-05-12T04:30:16.117Z,0.20
2019-05-12T04:33:06.618Z,0.50
2019-05-12T04:35:56.887Z,0.40
2019-05-12T04:38:46.335Z,0.37
2019-05-12T04:41:36.093Z,0.40
2019-05-12T04:44:26.039Z,0.43
2019-05-12T04:47:15.934Z,0.50
2019-05-12T04:50:07.194Z,0.13
2019-05-12T04:52:57.477Z,0.40
2019-05-12T04:56:05.553Z,0.30
2019-05-12T04:58:39.424Z,0.40
2019-05-12T05:01:29.412Z,0.40
2019-05-12T05:04:19.773Z,0.30
2019-05-12T05:07:09.582Z,0.30
2019-05-12T05:09:59.738Z,0.40
2019-05-12T05:12:50.184Z,0.40
2019-05-12T05:15:39.692Z,0.30
2019-05-12T05:18:29.361Z,0.57
2019-05-12T05:21:18.618Z,0.30
2019-05-12T05:24:08.374Z,0.60
2019-05-12T05:26:58.053Z,0.43
2019-05-12T05:29:47.719Z,0.47
2019-05-12T05:32:38.099Z,0.60
2019-05-12T05:35:33.687Z,0.40
2019-05-12T05:38:20.943Z,0.60
2019-05-12T05:41:13.254Z,0.43
2019-05-12T05:44:03.081Z,0.80
2019-05-12T05:46:54.622Z,0.70
2019-05-12T05:49:44.294Z,0.70
2019-05-12T05:52:38.524Z,0.57
2019-05-12T05:55:25.173Z,0.60
2019-05-12T05:58:15.376Z,0.70
2019-05-12T06:01:08.050Z,0.90
2019-05-12T06:03:58.417Z,0.90
2019-05-12T06:06:55.708Z,0.57
2019-05-12T06:09:39.488Z,0.80
2019-05-12T06:12:29.246Z,0.90
2019-05-12T06:15:19.330Z,0.83
2019-05-12T06:18:09.475Z,0.57
2019-05-12T06:20:59.899Z,0.87
2019-05-12T06:23:50.453Z,0.53
2019-05-12T06:26:54.546Z,0.60
2019-05-12T06:29:33.348Z,0.17
2019-05-12T06:32:25.107Z,0.83
2019-05-12T06:35:15.209Z,0.60
2019-05-12T06:38:05.813Z,0.80
2019-05-12T06:40:56.294Z,0.67
2019-05-12T06:43:46.519Z,0.40
2019-05-12T06:46:37.337Z,0.30
2019-05-12T06:49:27.857Z,0.20
2019-05-12T06:52:17.617Z,0.20
2019-05-12T06:55:08.952Z,0.43
2019-05-12T06:57:59.093Z,0.50
2019-05-12T07:00:49.663Z,0.50
2019-05-12T07:03:39.399Z,0.53
2019-05-12T07:06:29.819Z,0.80
2019-05-12T07:09:25.094Z,1.17
2019-05-12T07:12:13.759Z,0.60
2019-05-12T07:15:04.086Z,0.50
2019-05-12T07:17:59.104Z,0.50
2019-05-12T07:20:49.338Z,0.40
2019-05-12T07:23:39.098Z,0.40
2019-05-12T07:26:28.858Z,0.30
2019-05-12T07:29:18.512Z,0.50
2019-05-12T07:32:16.530Z,0.37
2019-05-12T07:34:59.739Z,0.50
2019-05-12T07:37:50.433Z,0.40
2019-05-12T07:40:44.399Z,0.30
2019-05-12T07:43:34.452Z,0.50
2019-05-12T07:46:27.895Z,0.80
2019-05-12T07:49:22.696Z,0.50
2019-05-12T07:52:08.634Z,0.40
2019-05-12T07:54:59.758Z,0.50
2019-05-12T07:57:55.130Z,0.50
2019-05-12T08:00:41.513Z,0.60
2019-05-12T08:03:31.461Z,0.30
2019-05-12T08:06:21.213Z,0.27
2019-05-12T08:09:10.977Z,0.20
2019-05-12T08:12:03.480Z,0.30
2019-05-12T08:14:54.161Z,0.37
2019-05-12T08:17:49.004Z,0.30
2019-05-12T08:20:36.042Z,0.60
2019-05-12T08:23:25.909Z,0.60
2019-05-12T08:26:18.631Z,0.40
2019-05-12T08:29:10.327Z,0.40
2019-05-12T08:31:58.134Z,0.47
2019-05-12T08:34:47.914Z,0.40
2019-05-12T08:37:37.588Z,0.30
2019-05-12T08:40:27.695Z,0.30
2019-05-12T08:43:17.698Z,0.47
2019-05-12T08:46:26.098Z,0.70
2019-05-12T08:49:17.292Z,0.30
2019-05-12T08:52:07.128Z,0.30
2019-05-12T08:54:56.908Z,0.37
2019-05-12T08:57:49.597Z,0.37
2019-05-12T09:00:46.567Z,0.50
2019-05-12T09:03:33.997Z,0.33
2019-05-12T09:06:23.977Z,0.33
2019-05-12T09:09:14.066Z,0.50
2019-05-12T09:12:04.793Z,0.57
2019-05-12T09:14:55.188Z,0.50
2019-05-12T09:17:52.461Z,0.23
2019-05-12T09:20:39.989Z,0.80
2019-05-12T09:23:32.835Z,0.40
2019-05-12T09:26:26.656Z,0.40
2019-05-12T09:29:11.103Z,0.57
2019-05-12T09:32:07.359Z,0.23
2019-05-12T09:34:58.063Z,0.53
2019-05-12T09:37:44.534Z,0.30
2019-05-12T09:40:36.003Z,0.40
2019-05-12T09:43:25.998Z,0.57
2019-05-12T09:46:17.117Z,0.40
2019-05-12T09:49:06.736Z,0.20
2019-05-12T09:51:56.592Z,0.30
2019-05-12T09:54:46.348Z,0.20
2019-05-12T09:57:45.096Z,0.40
2019-05-12T10:00:36.211Z,0.40
2019-05-12T10:03:30.864Z,0.30
2019-05-12T10:06:21.158Z,0.30
2019-05-12T10:09:17.618Z,0.30
2019-05-12T10:12:02.413Z,0.30
2019-05-12T10:14:53.545Z,0.63
2019-05-12T10:17:43.950Z,0.17
2019-05-12T10:20:39.517Z,0.30
2019-05-12T10:23:27.397Z,0.37
2019-05-12T10:26:16.597Z,0.30
2019-05-12T10:29:16.336Z,0.20
2019-05-12T10:31:58.145Z,0.50
2019-05-12T10:34:51.028Z,0.37
2019-05-12T10:37:40.214Z,0.40
2019-05-12T10:40:30.398Z,0.20
2019-05-12T10:43:19.848Z,0.30
2019-05-12T10:46:13.071Z,0.30
2019-05-12T10:49:03.932Z,0.23
2019-05-12T10:51:54.060Z,0.40
2019-05-12T10:54:44.465Z,0.30
2019-05-12T10:57:34.470Z,0.10
2019-05-12T11:00:26.834Z,0.30
2019-05-12T11:03:16.352Z,0.30
2019-05-12T11:06:07.686Z,0.30
2019-05-12T11:08:58.306Z,0.10
2019-05-12T11:11:48.337Z,0.20
2019-05-12T11:14:38.606Z,0.10
2019-05-12T11:17:46.037Z,0.10
2019-05-12T11:20:34.313Z,0.73
2019-05-12T11:23:24.583Z,0.30
2019-05-12T11:26:14.593Z,0.20
2019-05-12T11:29:04.757Z,0.50
2019-05-12T11:31:54.300Z,0.30
2019-05-12T11:34:44.870Z,0.60
2019-05-12T11:37:34.824Z,0.40
2019-05-12T11:40:24.839Z,0.70
2019-05-12T11:43:14.819Z,0.30
2019-05-12T11:46:04.857Z,0.67
2019-05-12T11:48:55.097Z,0.30
2019-05-12T11:51:44.984Z,0.20
2019-05-12T11:54:34.658Z,0.50
2019-05-12T11:57:30.019Z,0.90
2019-05-12T12:00:19.578Z,0.57
2019-05-12T12:03:17.450Z,0.30
2019-05-12T12:06:01.274Z,0.47
2019-05-12T12:08:53.529Z,0.63
2019-05-12T12:11:43.363Z,0.80
2019-05-12T12:14:34.483Z,0.80
2019-05-12T12:17:31.112Z,0.40
2019-05-12T12:20:22.246Z,0.57
2019-05-12T12:23:11.243Z,0.67
2019-05-12T12:26:03.846Z,0.80
2019-05-12T12:28:53.791Z,0.60
2019-05-12T12:31:51.457Z,0.90
2019-05-12T12:34:43.900Z,1.00
2019-05-12T12:37:33.256Z,0.83
2019-05-12T12:40:23.232Z,0.70
2019-05-12T12:43:13.807Z,0.33
2019-05-12T12:46:10.487Z,0.40
2019-05-12T12:49:05.413Z,0.50
2019-05-12T12:51:52.132Z,0.90
2019-05-12T12:54:43.831Z,0.43
2019-05-12T12:57:34.307Z,0.53
2019-05-12T13:00:32.264Z,0.40
2019-05-12T13:03:19.858Z,0.33
2019-05-12T13:06:07.898Z,0.50
2019-05-12T13:08:58.628Z,0.50
2019-05-12T13:11:49.827Z,0.43
2019-05-12T13:14:40.057Z,0.73
2019-05-12T13:17:36.507Z,0.50
2019-05-12T13:20:23.859Z,0.60
2019-05-12T13:23:14.185Z,0.30
2019-05-12T13:26:05.460Z,0.60
2019-05-12T13:28:55.310Z,0.77
2019-05-12T13:31:46.372Z,0.83
2019-05-12T13:34:38.587Z,1.03
2019-05-12T13:37:29.122Z,0.17
2019-05-12T13:40:20.094Z,0.33
2019-05-12T13:43:15.531Z,0.33
2019-05-12T13:46:02.415Z,0.57
2019-05-12T13:48:57.580Z,0.47
2019-05-12T13:51:48.518Z,0.50
2019-05-12T13:54:36.334Z,0.40
2019-05-12T13:57:27.157Z,0.60
2019-05-12T14:00:18.671Z,0.60
2019-05-12T14:03:09.813Z,0.40
2019-05-12T14:06:00.561Z,0.53
2019-05-12T14:08:50.965Z,0.40
2019-05-12T14:11:43.704Z,0.60
2019-05-12T14:14:34.099Z,0.70
2019-05-12T14:17:24.872Z,0.40
2019-05-12T14:20:19.991Z,0.63
2019-05-12T14:23:07.918Z,0.30
2019-05-12T14:26:02.331Z,0.20
2019-05-12T14:28:53.965Z,0.40
2019-05-12T14:31:55.095Z,0.50
2019-05-12T14:34:39.275Z,0.60
2019-05-12T14:37:29.992Z,0.60
2019-05-12T14:40:29.964Z,0.60
2019-05-12T14:43:17.019Z,0.63
2019-05-12T14:46:10.357Z,0.60
2019-05-12T14:48:59.927Z,0.40
2019-05-12T14:51:50.812Z,0.40
2019-05-12T14:54:43.584Z,0.67
2019-05-12T14:57:37.314Z,0.40
2019-05-12T15:00:25.974Z,0.70
2019-05-12T15:03:18.008Z,0.47
2019-05-12T15:06:09.877Z,0.50
2019-05-12T15:09:03.266Z,0.60
2019-05-12T15:11:54.215Z,0.47
2019-05-12T15:14:45.102Z,0.43
2019-05-12T15:17:36.057Z,0.23
2019-05-12T15:20:25.928Z,0.43
2019-05-12T15:23:15.917Z,0.40
2019-05-12T15:26:09.521Z,0.17
2019-05-12T15:28:58.027Z,0.40
2019-05-12T15:31:54.196Z,0.23
2019-05-12T15:34:41.488Z,0.20
2019-05-12T15:37:35.030Z,0.30
2019-05-12T15:40:23.928Z,0.43
2019-05-12T15:43:13.997Z,0.30
2019-05-12T15:46:04.643Z,2.63
2019-05-12T15:48:55.423Z,0.40
2019-05-12T15:51:54.152Z,0.47
2019-05-12T15:54:45.902Z,0.40
2019-05-12T15:57:28.982Z,0.43
2019-05-12T16:00:19.153Z,0.57
2019-05-12T16:03:09.115Z,0.50
2019-05-12T16:06:01.496Z,0.50
2019-05-12T16:08:53.438Z,1.00
2019-05-12T16:11:43.146Z,1.33
2019-05-12T16:14:36.843Z,0.30
2019-05-12T16:17:27.140Z,0.63
2019-05-12T16:20:17.042Z,0.70
2019-05-12T16:23:08.008Z,0.47
2019-05-12T16:26:01.297Z,0.40
2019-05-12T16:28:54.026Z,0.67
2019-05-12T16:31:47.865Z,0.57
2019-05-12T16:34:38.509Z,0.40
2019-05-12T16:37:31.058Z,0.47
2019-05-12T16:40:17.078Z,0.67
2019-05-12T16:43:06.873Z,0.30
2019-05-12T16:46:15.748Z,0.57
2019-05-12T16:49:05.736Z,0.43
2019-05-12T16:51:56.148Z,0.97
2019-05-12T16:54:46.028Z,0.77
2019-05-12T16:57:36.698Z,0.80
2019-05-12T17:00:26.910Z,0.80
2019-05-12T17:03:18.206Z,0.50
2019-05-12T17:06:10.464Z,0.60
2019-05-12T17:09:00.217Z,0.67
2019-05-12T17:11:52.801Z,0.77
2019-05-12T17:14:47.996Z,0.73
2019-05-12T17:17:33.822Z,0.57
2019-05-12T17:20:24.140Z,0.30
2019-05-12T17:23:14.089Z,0.90
2019-05-12T17:26:04.395Z,0.40
2019-05-12T17:28:54.057Z,0.43
2019-05-12T17:31:44.705Z,0.80
2019-05-12T17:34:35.280Z,0.77
2019-05-12T17:37:25.514Z,1.60
2019-05-12T17:40:20.021Z,0.90
2019-05-12T17:43:11.536Z,0.77
2019-05-12T17:46:01.257Z,0.90
2019-05-12T17:48:49.642Z,0.67
2019-05-12T17:51:39.702Z,0.80
2019-05-12T17:54:30.584Z,0.67
2019-05-12T17:57:20.324Z,0.70
2019-05-12T18:00:11.013Z,0.47
2019-05-12T18:03:15.634Z,0.67
2019-05-12T18:05:54.037Z,0.60
2019-05-12T18:08:45.513Z,0.77
2019-05-12T18:11:36.023Z,0.80
2019-05-12T18:14:27.838Z,0.70
2019-05-12T18:17:18.138Z,0.70
2019-05-12T18:20:08.839Z,1.07
2019-05-12T18:22:59.437Z,0.97
2019-05-12T18:25:49.618Z,0.70
2019-05-12T18:35:26.138Z,0.90
2019-05-12T18:38:22.756Z,1.00
2019-05-12T18:41:07.573Z,0.63
2019-05-12T18:43:57.717Z,0.90
2019-05-12T18:46:47.479Z,0.93
2019-05-12T18:49:41.981Z,1.20
2019-05-12T18:53:27.498Z,1.43
2019-05-12T18:56:19.730Z,0.93
2019-05-12T18:59:11.350Z,1.17
2019-05-12T19:02:00.430Z,1.10
2019-05-12T19:04:50.618Z,1.17
2019-05-12T19:07:40.648Z,1.10
2019-05-12T19:10:30.504Z,1.10
2019-05-12T19:13:20.599Z,1.30
2019-05-12T19:16:11.497Z,1.67
2019-05-12T19:19:01.563Z,1.70
2019-05-12T19:22:03.141Z,1.47
2019-05-12T19:24:44.498Z,1.30
2019-05-12T19:27:35.418Z,1.23
2019-05-12T19:30:27.073Z,1.60
2019-05-12T19:33:17.899Z,1.83
2019-05-12T19:36:09.159Z,1.77
2019-05-12T19:38:59.588Z,1.80
2019-05-12T19:41:49.522Z,1.63
2019-05-12T19:44:39.262Z,1.50
2019-05-12T19:47:33.888Z,1.80
2019-05-12T19:50:20.993Z,1.40
2019-05-12T19:53:13.330Z,2.23
2019-05-12T19:56:04.681Z,1.83
2019-05-12T19:58:55.753Z,1.43
2019-05-12T20:01:46.093Z,1.67
2019-05-12T20:04:42.064Z,1.70
2019-05-12T20:07:28.707Z,1.70
2019-05-12T20:10:19.611Z,1.50
2019-05-12T20:13:10.137Z,1.83
2019-05-12T20:16:00.561Z,1.20
2019-05-12T20:18:50.301Z,1.83
2019-05-12T20:21:43.639Z,1.90
2019-05-12T20:24:33.048Z,2.67
2019-05-12T20:27:24.709Z,2.27
2019-05-12T20:30:20.410Z,2.40
2019-05-12T20:33:08.178Z,1.63
2019-05-12T20:35:59.438Z,1.93
2019-05-12T20:38:49.028Z,1.77
2019-05-12T20:41:39.578Z,2.00
2019-05-12T20:44:29.837Z,2.20
2019-05-12T20:47:19.675Z,1.43
2019-05-12T20:50:10.492Z,1.63
2019-05-12T20:53:01.178Z,2.27
2019-05-12T20:55:51.157Z,1.20
2019-05-12T20:58:45.864Z,1.63
2019-05-12T21:01:36.137Z,1.73
2019-05-12T21:04:31.262Z,1.40
2019-05-12T21:07:22.562Z,1.30
2019-05-12T21:10:14.801Z,2.03
2019-05-12T21:13:05.660Z,1.70
2019-05-12T21:15:55.975Z,1.63
2019-05-12T21:18:55.697Z,1.70
2019-05-12T21:21:39.142Z,2.10
2019-05-12T21:24:34.904Z,1.87
2019-05-12T21:27:21.063Z,1.63
2019-05-12T21:30:15.226Z,1.40
2019-05-12T21:33:05.977Z,1.60
2019-05-12T21:35:56.048Z,1.70
2019-05-12T21:38:45.819Z,1.37
2019-05-12T21:41:40.796Z,1.83
2019-05-12T21:44:27.476Z,1.40
2019-05-12T21:47:17.152Z,1.90
2019-05-12T21:50:07.430Z,1.83
2019-05-12T21:52:59.905Z,1.20
2019-05-12T21:55:49.183Z,1.47
2019-05-12T21:58:45.335Z,1.83
2019-05-12T22:01:35.168Z,1.50
2019-05-12T22:04:23.576Z,1.80
2019-05-12T22:07:15.161Z,1.77
2019-05-12T22:10:05.853Z,1.70
2019-05-12T22:13:00.533Z,1.67
2019-05-12T22:15:51.380Z,2.37
2019-05-12T22:18:38.993Z,1.60
2019-05-12T22:21:29.785Z,1.73
2019-05-12T22:24:27.597Z,1.60
2019-05-12T22:27:16.205Z,1.53
2019-05-12T22:30:04.422Z,2.10
2019-05-12T22:32:59.312Z,2.20
2019-05-12T22:35:45.913Z,2.07
2019-05-12T22:38:35.901Z,1.57
2019-05-12T22:41:30.422Z,1.50
2019-05-12T22:44:20.828Z,1.77
2019-05-12T22:47:15.877Z,1.83
2019-05-12T22:50:00.693Z,1.97
2019-05-12T22:52:53.311Z,1.90
2019-05-12T22:55:43.478Z,1.80
2019-05-12T22:58:33.909Z,1.80
2019-05-12T23:01:24.541Z,1.60
2019-05-12T23:04:14.458Z,1.87
2019-05-12T23:07:05.017Z,1.73
2019-05-12T23:09:54.937Z,1.90
2019-05-12T23:12:45.172Z,2.33
2019-05-12T23:15:38.786Z,1.90
2019-05-12T23:18:30.712Z,2.60
2019-05-12T23:21:19.194Z,2.27
2019-05-12T23:24:09.028Z,2.47
2019-05-12T23:26:58.808Z,1.70
2019-05-12T23:29:48.853Z,2.07
2019-05-12T23:32:45.355Z,2.20
2019-05-12T23:35:36.585Z,2.03
2019-05-12T23:38:24.393Z,1.60
2019-05-12T23:41:14.438Z,1.80
2019-05-12T23:44:04.540Z,1.90
2019-05-12T23:46:54.132Z,2.60
2019-05-12T23:49:44.511Z,1.90
2019-05-12T23:52:34.695Z,2.20
2019-05-12T23:55:25.737Z,2.50
2019-05-12T23:58:15.619Z,2.10
